< < Back
Terminal Aerodrome Forecast


Current Version              Previous Versions:   1  2  3  4  5  6  7  8  9  

Terminal Aerodrome Forecast

388
FTUS42 KGSP 312059 AAA
TAFCLT
TAF AMD
KCLT 312059Z 3121/0118 21007KT P6SM SCT180 BKN250
     FM010000 22003KT P6SM BKN180 OVC250
     FM011200 20006KT P6SM BKN120
     FM011600 20008G17KT P6SM SCT025 OVC100=



Latest METAR

109
SAUS70 KWBC 010700 RRJ
MTRCLT
METAR KCLT 010652Z 18003KT 10SM BKN110 OVC130 04/M07 A3026 RMK AO2
SLP249 T00391067


USA.gov is the U.S. government's official web portal to all federal, state and local government web resources and services.